createdAt,value
2018-06-23T00:01:46.289Z,82.69
2018-06-23T00:04:14.938Z,83.05
2018-06-23T00:06:44.072Z,83.27
2018-06-23T00:09:12.668Z,82.82
2018-06-23T00:11:41.248Z,82.22
2018-06-23T00:14:09.835Z,81.37
2018-06-23T00:16:38.370Z,82.90
2018-06-23T00:19:06.970Z,83.29
2018-06-23T00:21:35.514Z,83.52
2018-06-23T00:24:04.115Z,83.95
2018-06-23T00:26:32.690Z,83.77
2018-06-23T00:29:01.886Z,84.82
2018-06-23T00:31:30.438Z,85.46
2018-06-23T00:33:59.476Z,85.75
2018-06-23T00:36:29.494Z,84.08
2018-06-23T00:38:59.516Z,83.80
2018-06-23T00:41:28.113Z,84.56
2018-06-23T00:43:56.680Z,84.07
2018-06-23T00:46:25.265Z,84.22
2018-06-23T00:48:53.830Z,85.46
2018-06-23T00:51:22.430Z,85.05
2018-06-23T00:53:51.001Z,85.43
2018-06-23T00:56:19.578Z,86.04
2018-06-23T00:58:59.753Z,85.40
2018-06-23T01:01:28.353Z,85.07
2018-06-23T01:03:56.946Z,83.57
2018-06-23T01:06:25.773Z,85.88
2018-06-23T01:08:54.336Z,83.18
2018-06-23T01:11:22.912Z,84.99
2018-06-23T01:13:51.456Z,84.65
2018-06-23T01:16:20.058Z,83.70
2018-06-23T01:18:49.252Z,85.22
2018-06-23T01:21:17.827Z,86.12
2018-06-23T01:23:46.381Z,86.80
2018-06-23T01:26:14.969Z,85.99
2018-06-23T01:28:44.257Z,84.10
2018-06-23T01:31:12.840Z,85.52
2018-06-23T01:33:41.382Z,85.26
2018-06-23T01:36:10.014Z,85.41
2018-06-23T01:38:38.580Z,85.58
2018-06-23T01:41:07.157Z,85.46
2018-06-23T01:43:35.689Z,86.88
2018-06-23T01:46:04.281Z,87.16
2018-06-23T01:48:32.867Z,87.41
2018-06-23T01:51:01.462Z,87.69
2018-06-23T01:53:30.022Z,87.41
2018-06-23T01:55:58.662Z,86.28
2018-06-23T01:58:27.196Z,86.41
2018-06-23T02:00:55.782Z,86.68
2018-06-23T02:03:24.318Z,87.20
2018-06-23T02:05:52.945Z,85.27
2018-06-23T02:08:21.490Z,85.47
2018-06-23T02:10:50.067Z,86.56
2018-06-23T02:13:18.656Z,85.83
2018-06-23T02:15:52.496Z,86.89
2018-06-23T02:18:26.113Z,86.96
2018-06-23T02:20:59.987Z,85.57
2018-06-23T02:23:33.845Z,85.92
2018-06-23T02:26:07.701Z,86.33
2018-06-23T02:28:41.459Z,86.81
2018-06-23T02:31:15.267Z,86.17
2018-06-23T02:33:49.739Z,86.22
2018-06-23T02:36:18.310Z,86.41
2018-06-23T02:38:46.854Z,87.23
2018-06-23T02:41:15.397Z,89.94
2018-06-23T02:43:44.643Z,89.05
2018-06-23T02:46:13.249Z,87.87
2018-06-23T02:48:42.018Z,88.65
2018-06-23T02:51:10.555Z,87.39
2018-06-23T02:53:39.115Z,86.96
2018-06-23T02:56:07.783Z,86.98
2018-06-23T02:58:36.399Z,87.43
2018-06-23T03:01:04.950Z,86.57
2018-06-23T03:03:33.577Z,87.03
2018-06-23T03:06:02.136Z,87.54
2018-06-23T03:08:30.721Z,87.82
2018-06-23T03:10:59.275Z,86.87
2018-06-23T03:13:27.858Z,86.34
2018-06-23T03:15:56.453Z,86.09
2018-06-23T03:18:25.050Z,88.30
2018-06-23T03:20:53.629Z,88.46
2018-06-23T03:23:22.201Z,87.88
2018-06-23T03:25:50.765Z,86.38
2018-06-23T03:28:19.353Z,86.88
2018-06-23T03:30:48.229Z,87.48
2018-06-23T03:33:16.895Z,85.85
2018-06-23T03:35:45.467Z,86.61
2018-06-23T03:38:14.758Z,87.94
2018-06-23T03:40:43.565Z,87.06
2018-06-23T03:43:12.121Z,87.47
2018-06-23T03:45:40.689Z,87.93
2018-06-23T03:48:09.229Z,87.96
2018-06-23T03:50:37.809Z,88.69
2018-06-23T03:53:06.380Z,88.70
2018-06-23T03:55:34.966Z,87.73
2018-06-23T03:58:03.509Z,88.35
2018-06-23T04:00:32.345Z,90.02
2018-06-23T04:03:00.906Z,88.85
2018-06-23T04:05:29.757Z,91.54
2018-06-23T04:07:58.392Z,89.62
2018-06-23T04:10:27.025Z,87.74
2018-06-23T04:12:55.572Z,88.94
2018-06-23T04:15:24.165Z,88.80
2018-06-23T04:17:52.705Z,88.56
2018-06-23T04:20:21.303Z,87.81
2018-06-23T04:22:49.867Z,90.12
2018-06-23T04:25:18.463Z,90.32
2018-06-23T04:27:47.029Z,88.84
2018-06-23T04:30:15.609Z,88.54
2018-06-23T04:32:44.971Z,89.46
2018-06-23T04:35:13.520Z,89.60
2018-06-23T04:37:42.123Z,88.81
2018-06-23T04:40:10.676Z,89.27
2018-06-23T04:42:39.261Z,89.32
2018-06-23T04:45:07.810Z,89.45
2018-06-23T04:47:36.410Z,88.69
2018-06-23T04:50:04.992Z,88.21
2018-06-23T04:52:33.616Z,88.05
2018-06-23T04:55:02.165Z,88.07
2018-06-23T04:57:30.758Z,87.53
2018-06-23T04:59:59.324Z,88.01
2018-06-23T05:02:27.965Z,87.68
2018-06-23T05:04:56.548Z,87.36
2018-06-23T05:07:25.114Z,88.96
2018-06-23T05:09:53.654Z,88.36
2018-06-23T05:12:22.225Z,87.73
2018-06-23T05:14:50.773Z,87.36
2018-06-23T05:17:19.325Z,86.92
2018-06-23T05:19:47.871Z,88.06
2018-06-23T05:22:16.461Z,86.90
2018-06-23T05:24:45.057Z,86.19
2018-06-23T05:27:13.624Z,87.15
2018-06-23T05:29:42.156Z,86.39
2018-06-23T05:32:10.749Z,85.98
2018-06-23T05:34:39.274Z,85.46
2018-06-23T05:37:07.836Z,85.30
2018-06-23T05:39:36.378Z,85.33
2018-06-23T05:42:04.969Z,84.62
2018-06-23T05:44:33.502Z,84.96
2018-06-23T05:47:02.076Z,84.39
2018-06-23T05:49:30.621Z,85.67
2018-06-23T05:51:59.214Z,86.29
2018-06-23T05:54:27.771Z,86.88
2018-06-23T05:57:02.959Z,86.36
2018-06-23T05:59:31.834Z,85.94
2018-06-23T06:02:00.693Z,84.94
2018-06-23T06:04:29.277Z,85.60
2018-06-23T06:06:57.914Z,85.15
2018-06-23T06:09:26.468Z,82.30
2018-06-23T06:11:55.049Z,83.28
2018-06-23T06:14:23.595Z,84.12
2018-06-23T06:17:31.465Z,82.59
2018-06-23T06:20:04.141Z,82.78
2018-06-23T06:22:36.036Z,81.11
2018-06-23T06:25:05.406Z,80.52
2018-06-23T06:27:33.986Z,79.60
2018-06-23T06:30:02.532Z,80.12
2018-06-23T06:32:32.380Z,81.00
2018-06-23T06:35:00.929Z,78.58
2018-06-23T06:37:29.578Z,78.85
2018-06-23T06:39:58.813Z,74.56
2018-06-23T06:42:27.413Z,71.15
2018-06-23T06:45:02.227Z,70.95
2018-06-23T06:47:31.060Z,71.35
2018-06-23T06:49:59.645Z,70.52
2018-06-23T06:52:28.192Z,69.94
2018-06-23T06:54:57.095Z,70.34
2018-06-23T06:57:25.641Z,70.26
2018-06-23T06:59:57.033Z,69.75
2018-06-23T07:02:25.655Z,69.41
2018-06-23T07:04:54.222Z,68.17
2018-06-23T07:07:22.741Z,68.26
2018-06-23T07:09:51.349Z,67.93
2018-06-23T07:12:19.899Z,68.38
2018-06-23T07:14:54.185Z,67.21
2018-06-23T07:17:22.740Z,66.01
2018-06-23T07:19:51.333Z,66.92
2018-06-23T07:22:20.064Z,69.22
2018-06-23T07:24:48.645Z,66.96
2018-06-23T07:27:17.206Z,67.05
2018-06-23T07:29:51.731Z,65.84
2018-06-23T07:32:26.675Z,67.04
2018-06-23T07:35:00.407Z,66.49
2018-06-23T07:37:35.870Z,67.52
2018-06-23T07:40:12.559Z,68.16
2018-06-23T07:42:45.862Z,68.42
2018-06-23T07:45:20.594Z,68.08
2018-06-23T07:47:50.455Z,67.05
2018-06-23T07:50:23.012Z,66.64
2018-06-23T07:52:56.344Z,66.40
2018-06-23T07:55:31.903Z,66.04
2018-06-23T07:58:06.999Z,66.42
2018-06-23T08:00:41.040Z,65.29
2018-06-23T08:03:13.412Z,65.91
2018-06-23T08:05:46.103Z,64.24
2018-06-23T08:08:20.687Z,64.91
2018-06-23T08:10:51.416Z,65.70
2018-06-23T08:13:20.002Z,63.41
2018-06-23T08:15:51.335Z,64.36
2018-06-23T08:18:23.256Z,64.00
2018-06-23T08:20:58.868Z,65.17
2018-06-23T08:23:33.195Z,66.00
2018-06-23T08:26:07.461Z,62.37
2018-06-23T08:28:41.792Z,61.96
2018-06-23T08:31:12.212Z,61.40
2018-06-23T08:33:46.204Z,62.45
2018-06-23T08:36:19.081Z,62.32
2018-06-23T08:39:01.877Z,57.87
2018-06-23T08:41:38.792Z,57.56
2018-06-23T08:44:12.627Z,60.74
2018-06-23T08:46:47.944Z,58.65
2018-06-23T08:52:10.558Z,56.57
2018-06-23T08:54:40.138Z,54.84
2018-06-23T08:57:13.478Z,54.13
2018-06-23T08:59:43.250Z,54.72
2018-06-23T09:02:12.259Z,55.80
2018-06-23T09:04:43.697Z,55.82
2018-06-23T09:07:14.290Z,54.71
2018-06-23T09:09:44.972Z,54.94
2018-06-23T09:12:16.363Z,52.09
2018-06-23T09:14:48.352Z,51.86
2018-06-23T09:17:17.868Z,52.67
2018-06-23T09:19:49.809Z,54.06
2018-06-23T09:22:20.543Z,52.17
2018-06-23T09:24:53.920Z,53.91
2018-06-23T09:27:27.213Z,52.50
2018-06-23T09:29:58.842Z,54.61
2018-06-23T09:32:30.495Z,55.73
2018-06-23T09:35:01.274Z,55.77
2018-06-23T09:37:29.954Z,57.74
2018-06-23T09:40:05.089Z,55.94
2018-06-23T09:42:37.550Z,52.23
2018-06-23T09:45:07.086Z,52.50
2018-06-23T09:47:36.844Z,51.64
2018-06-23T09:50:06.481Z,51.31
2018-06-23T09:52:35.966Z,51.05
2018-06-23T09:55:07.420Z,49.07
2018-06-23T09:57:36.869Z,48.71
2018-06-23T10:00:09.341Z,52.09
2018-06-23T10:02:57.144Z,51.68
2018-06-23T10:05:26.958Z,52.39
2018-06-23T10:07:57.104Z,50.94
2018-06-23T10:10:27.111Z,52.33
2018-06-23T10:13:00.100Z,49.78
2018-06-23T10:15:37.418Z,50.55
2018-06-23T10:18:07.845Z,49.58
2018-06-23T10:20:36.622Z,50.44
2018-06-23T10:23:06.954Z,51.36
2018-06-23T10:25:38.850Z,52.88
2018-06-23T10:28:08.784Z,52.31
2018-06-23T10:30:40.262Z,49.50
2018-06-23T10:33:14.289Z,50.72
2018-06-23T10:35:47.725Z,50.57
2018-06-23T10:38:18.600Z,50.36
2018-06-23T10:40:47.232Z,50.54
2018-06-23T10:43:16.054Z,50.37
2018-06-23T10:45:44.601Z,51.27
2018-06-23T10:48:13.228Z,51.86
2018-06-23T10:50:41.997Z,52.73
2018-06-23T10:53:10.635Z,52.12
2018-06-23T10:55:39.257Z,54.51
2018-06-23T10:58:07.850Z,53.10
2018-06-23T11:00:37.074Z,54.06
2018-06-23T11:03:12.634Z,54.97
2018-06-23T11:05:42.032Z,53.42
2018-06-23T11:08:12.564Z,53.21
2018-06-23T11:10:43.493Z,52.64
2018-06-23T11:13:14.246Z,51.25
2018-06-23T11:15:48.451Z,52.51
2018-06-23T11:18:20.505Z,51.81
2018-06-23T11:20:49.206Z,52.67
2018-06-23T11:23:23.634Z,53.98
2018-06-23T11:25:53.084Z,52.35
2018-06-23T11:28:27.555Z,55.08
2018-06-23T11:30:58.679Z,54.22
2018-06-23T11:33:29.013Z,50.29
2018-06-23T11:35:59.896Z,54.48
2018-06-23T11:38:30.792Z,50.43
2018-06-23T11:41:01.747Z,49.95
2018-06-23T11:43:30.486Z,51.26
2018-06-23T11:46:04.894Z,49.99
2018-06-23T11:48:33.572Z,52.42
2018-06-23T11:51:02.293Z,52.33
2018-06-23T11:53:30.867Z,49.19
2018-06-23T11:55:59.405Z,49.46
2018-06-23T11:58:35.437Z,49.34
2018-06-23T12:01:10.091Z,50.91
2018-06-23T12:03:39.122Z,48.45
2018-06-23T12:06:09.396Z,49.30
2018-06-23T12:08:42.266Z,51.53
2018-06-23T12:11:13.435Z,50.09
2018-06-23T12:13:43.367Z,50.44
2018-06-23T12:16:15.205Z,49.89
2018-06-23T12:18:44.730Z,50.48
2018-06-23T12:21:14.532Z,51.17
2018-06-23T12:23:45.410Z,51.14
2018-06-23T12:26:15.851Z,51.84
2018-06-23T12:28:46.691Z,53.96
2018-06-23T12:31:20.936Z,51.41
2018-06-23T12:33:51.169Z,52.91
2018-06-23T12:36:21.916Z,49.88
2018-06-23T12:38:51.678Z,51.29
2018-06-23T12:41:20.258Z,52.77
2018-06-23T12:43:53.210Z,49.53
2018-06-23T12:46:22.169Z,50.10
2018-06-23T12:48:51.630Z,49.50
2018-06-23T12:51:24.240Z,47.92
2018-06-23T12:53:54.264Z,46.64
2018-06-23T12:56:23.979Z,47.89
2018-06-23T12:58:54.908Z,48.90
2018-06-23T13:01:24.068Z,51.04
2018-06-23T13:03:52.704Z,48.62
2018-06-23T13:06:21.609Z,49.08
2018-06-23T13:08:50.258Z,47.24
2018-06-23T13:11:18.873Z,46.98
2018-06-23T13:13:47.438Z,47.32
2018-06-23T13:16:16.580Z,49.25
2018-06-23T13:18:48.029Z,48.55
2018-06-23T13:21:16.630Z,48.41
2018-06-23T13:23:45.184Z,48.85
2018-06-23T13:26:15.259Z,47.20
2018-06-23T13:28:44.101Z,48.40
2018-06-23T13:31:13.031Z,48.73
2018-06-23T13:33:42.044Z,49.15
2018-06-23T13:36:14.294Z,49.41
2018-06-23T13:38:42.901Z,50.24
2018-06-23T13:41:11.578Z,50.96
2018-06-23T13:43:40.425Z,51.62
2018-06-23T13:46:08.957Z,50.94
2018-06-23T13:48:38.149Z,50.24
2018-06-23T13:51:06.797Z,50.30
2018-06-23T13:53:35.708Z,50.13
2018-06-23T13:56:04.373Z,51.76
2018-06-23T13:58:32.949Z,48.59
2018-06-23T14:01:01.594Z,48.01
2018-06-23T14:03:30.154Z,48.03
2018-06-23T14:05:58.781Z,46.86
2018-06-23T14:08:27.317Z,47.57
2018-06-23T14:10:55.924Z,47.35
2018-06-23T14:13:24.450Z,47.53
2018-06-23T14:15:53.036Z,47.31
2018-06-23T14:18:21.583Z,46.66
2018-06-23T14:20:50.150Z,46.74
2018-06-23T14:23:18.691Z,46.49
2018-06-23T14:25:47.281Z,47.43
2018-06-23T14:28:16.705Z,47.68
2018-06-23T14:30:45.308Z,49.28
2018-06-23T14:33:14.184Z,48.94
2018-06-23T14:35:42.773Z,48.62
2018-06-23T14:38:11.293Z,48.52
2018-06-23T14:40:50.925Z,49.04
2018-06-23T14:43:19.607Z,50.87
2018-06-23T14:45:48.189Z,49.10
2018-06-23T14:48:16.824Z,48.68
2018-06-23T14:50:45.397Z,49.09
2018-06-23T14:53:13.941Z,47.96
2018-06-23T14:55:42.510Z,48.49
2018-06-23T14:58:11.048Z,48.65
2018-06-23T15:00:39.617Z,49.88
2018-06-23T15:03:08.158Z,49.58
2018-06-23T15:05:36.780Z,49.58
2018-06-23T15:08:16.401Z,50.71
2018-06-23T15:10:56.120Z,50.09
2018-06-23T15:13:24.668Z,50.52
2018-06-23T15:15:53.240Z,50.28
2018-06-23T15:18:21.782Z,50.90
2018-06-23T15:20:50.353Z,50.00
2018-06-23T15:23:18.923Z,50.63
2018-06-23T15:25:47.490Z,50.54
2018-06-23T15:28:16.927Z,52.09
2018-06-23T15:30:45.473Z,50.20
2018-06-23T15:33:14.051Z,49.66
2018-06-23T15:35:42.603Z,50.16
2018-06-23T15:38:11.214Z,49.51
2018-06-23T15:40:39.771Z,49.94
2018-06-23T15:43:08.349Z,50.34
2018-06-23T15:45:36.966Z,52.08
2018-06-23T15:48:05.607Z,51.11
2018-06-23T15:50:34.226Z,52.44
2018-06-23T15:53:02.852Z,53.44
2018-06-23T15:55:31.357Z,54.31
2018-06-23T15:58:00.065Z,52.76
2018-06-23T16:00:28.603Z,52.41
2018-06-23T16:02:57.171Z,52.73
2018-06-23T16:05:25.758Z,54.53
2018-06-23T16:07:54.345Z,54.20
2018-06-23T16:10:25.710Z,54.58
2018-06-23T16:12:55.395Z,54.94
2018-06-23T16:15:24.348Z,55.14
2018-06-23T16:17:55.352Z,56.37
2018-06-23T16:20:29.100Z,55.20
2018-06-23T16:23:02.046Z,55.45
2018-06-23T16:25:32.801Z,55.65
2018-06-23T16:28:03.436Z,54.97
2018-06-23T16:30:37.464Z,55.55
2018-06-23T16:33:10.964Z,55.48
2018-06-23T16:35:40.552Z,55.45
2018-06-23T16:38:10.233Z,55.55
2018-06-23T16:40:43.350Z,55.42
2018-06-23T16:43:12.789Z,57.00
2018-06-23T16:45:43.197Z,54.83
2018-06-23T16:48:14.651Z,53.65
2018-06-23T16:50:45.196Z,53.78
2018-06-23T16:53:14.304Z,51.98
2018-06-23T16:55:45.489Z,45.50
2018-06-23T16:58:15.350Z,51.08
2018-06-23T17:00:43.977Z,52.49
2018-06-23T17:03:13.664Z,52.39
2018-06-23T17:05:44.671Z,53.19
2018-06-23T17:08:16.478Z,52.50
2018-06-23T17:10:46.058Z,53.55
2018-06-23T17:13:15.913Z,53.49
2018-06-23T17:15:46.061Z,53.93
2018-06-23T17:18:17.676Z,55.82
2018-06-23T17:20:50.309Z,57.38
2018-06-23T17:23:18.930Z,58.16
2018-06-23T17:25:52.244Z,56.59
2018-06-23T17:28:21.259Z,54.27
2018-06-23T17:30:55.098Z,51.10
2018-06-23T17:33:23.732Z,41.75
2018-06-23T17:35:53.349Z,51.08
2018-06-23T17:38:22.740Z,52.78
2018-06-23T17:40:55.274Z,53.10
2018-06-23T17:43:24.438Z,53.56
2018-06-23T17:45:54.573Z,54.41
2018-06-23T17:48:24.575Z,54.69
2018-06-23T17:50:55.162Z,54.08
2018-06-23T17:53:26.284Z,53.45
2018-06-23T17:55:56.591Z,49.19
2018-06-23T17:58:26.808Z,51.53
2018-06-23T18:00:56.335Z,53.17
2018-06-23T18:03:28.123Z,52.16
2018-06-23T18:05:59.781Z,51.18
2018-06-23T18:08:30.636Z,48.86
2018-06-23T18:11:01.191Z,47.98
2018-06-23T18:13:30.629Z,48.43
2018-06-23T18:16:00.543Z,49.34
2018-06-23T18:18:31.490Z,49.20
2018-06-23T18:21:02.274Z,48.91
2018-06-23T18:23:32.978Z,51.21
2018-06-23T18:26:02.897Z,50.45
2018-06-23T18:28:33.759Z,50.61
2018-06-23T18:31:03.201Z,48.85
2018-06-23T18:33:33.310Z,48.29
2018-06-23T18:36:03.330Z,48.44
2018-06-23T18:38:34.198Z,50.18
2018-06-23T18:41:04.087Z,49.23
2018-06-23T18:43:34.565Z,50.77
2018-06-23T18:46:04.821Z,52.78
2018-06-23T18:48:35.247Z,52.77
2018-06-23T18:51:05.256Z,53.36
2018-06-23T18:53:35.933Z,54.15
2018-06-23T18:56:06.005Z,54.45
2018-06-23T18:58:36.413Z,52.89
2018-06-23T19:01:06.575Z,52.99
2018-06-23T19:03:37.011Z,53.63
2018-06-23T19:06:08.195Z,53.28
2018-06-23T19:08:38.847Z,53.98
2018-06-23T19:11:09.565Z,55.02
2018-06-23T19:13:39.736Z,55.49
2018-06-23T19:16:09.501Z,56.77
2018-06-23T19:18:39.126Z,57.09
2018-06-23T19:21:09.369Z,57.16
2018-06-23T19:23:38.977Z,57.92
2018-06-23T19:26:09.294Z,58.23
2018-06-23T19:28:41.098Z,59.27
2018-06-23T19:31:11.156Z,60.35
2018-06-23T19:33:41.212Z,62.67
2018-06-23T19:36:11.046Z,64.33
2018-06-23T19:38:41.153Z,62.94
2018-06-23T19:41:25.510Z,62.32
2018-06-23T19:43:55.886Z,61.75
2018-06-23T19:46:28.561Z,63.15
2018-06-23T19:49:02.095Z,64.49
2018-06-23T19:51:34.052Z,65.05
2018-06-23T19:54:03.493Z,66.65
2018-06-23T19:56:33.570Z,68.06
2018-06-23T19:59:03.899Z,68.42
2018-06-23T20:01:34.446Z,68.47
2018-06-23T20:04:05.112Z,71.60
2018-06-23T20:06:34.730Z,70.60
2018-06-23T20:09:05.637Z,71.27
2018-06-23T20:11:36.794Z,71.61
2018-06-23T20:14:06.374Z,70.60
2018-06-23T20:16:36.140Z,71.08
2018-06-23T20:19:05.746Z,71.17
2018-06-23T20:21:42.146Z,72.85
2018-06-23T20:24:12.230Z,72.48
2018-06-23T20:26:41.930Z,72.44
2018-06-23T20:29:13.221Z,72.53
2018-06-23T20:31:45.744Z,72.95
2018-06-23T20:34:14.404Z,73.29
2018-06-23T20:36:45.121Z,73.75
2018-06-23T20:39:14.880Z,74.55
2018-06-23T20:41:45.001Z,73.16
2018-06-23T20:44:16.691Z,74.26
2018-06-23T20:46:50.426Z,75.37
2018-06-23T20:49:23.437Z,75.45
2018-06-23T20:51:59.682Z,75.56
2018-06-23T20:54:30.136Z,75.68
2018-06-23T20:57:00.394Z,75.03
2018-06-23T20:59:32.230Z,75.00
2018-06-23T21:02:02.442Z,76.01
2018-06-23T21:04:42.423Z,76.46
2018-06-23T21:07:14.386Z,76.27
2018-06-23T21:09:46.989Z,75.58
2018-06-23T21:12:18.131Z,76.18
2018-06-23T21:14:52.107Z,76.99
2018-06-23T21:17:25.598Z,77.04
2018-06-23T21:19:56.254Z,77.88
2018-06-23T21:22:26.498Z,78.24
2018-06-23T21:24:58.520Z,78.04
2018-06-23T21:27:28.385Z,78.43
2018-06-23T21:29:59.189Z,77.81
2018-06-23T21:32:29.570Z,79.40
2018-06-23T21:34:59.412Z,79.11
2018-06-23T21:37:29.597Z,79.21
2018-06-23T21:39:59.136Z,79.40
2018-06-23T21:42:27.739Z,78.95
2018-06-23T21:44:56.756Z,79.37
2018-06-23T21:47:25.729Z,80.49
2018-06-23T21:49:54.252Z,78.77
2018-06-23T21:52:22.876Z,79.15
2018-06-23T21:54:52.022Z,79.01
2018-06-23T21:57:22.123Z,78.83
2018-06-23T21:59:50.745Z,80.04
2018-06-23T22:02:21.114Z,80.14
2018-06-23T22:04:49.922Z,82.03
2018-06-23T22:07:18.503Z,81.02
2018-06-23T22:09:47.065Z,80.40
2018-06-23T22:12:15.691Z,79.75
2018-06-23T22:14:44.255Z,80.65
2018-06-23T22:17:12.872Z,81.23
2018-06-23T22:19:41.489Z,81.86
2018-06-23T22:22:10.080Z,81.35
2018-06-23T22:24:38.901Z,80.33
2018-06-23T22:27:07.515Z,81.41
2018-06-23T22:29:36.113Z,82.13
2018-06-23T22:32:04.783Z,82.51
2018-06-23T22:34:35.377Z,84.92
2018-06-23T22:37:03.990Z,84.19
2018-06-23T22:39:32.559Z,82.06
2018-06-23T22:42:01.521Z,82.65
2018-06-23T22:44:30.063Z,83.40
2018-06-23T22:46:58.665Z,84.17
2018-06-23T22:49:27.229Z,83.10
2018-06-23T22:51:55.781Z,82.17
2018-06-23T22:54:24.397Z,82.20
2018-06-23T22:56:52.954Z,82.53
2018-06-23T22:59:24.204Z,83.94
2018-06-23T23:01:52.790Z,83.92
2018-06-23T23:04:21.403Z,83.67
2018-06-23T23:06:50.205Z,83.43
2018-06-23T23:09:18.786Z,84.67
2018-06-23T23:11:47.329Z,84.21
2018-06-23T23:14:15.920Z,84.21
2018-06-23T23:16:45.357Z,86.30
2018-06-23T23:19:13.964Z,84.16
2018-06-23T23:21:42.494Z,85.64
2018-06-23T23:24:11.061Z,84.67
2018-06-23T23:26:39.606Z,85.52
2018-06-23T23:29:08.186Z,85.30
2018-06-23T23:31:36.779Z,85.03
2018-06-23T23:34:05.658Z,85.05
2018-06-23T23:36:34.229Z,85.38
2018-06-23T23:39:02.877Z,84.44
2018-06-23T23:41:31.414Z,83.59
2018-06-23T23:44:00.005Z,83.33
2018-06-23T23:46:28.554Z,84.42
2018-06-23T23:48:57.162Z,86.16
2018-06-23T23:51:25.712Z,84.74
2018-06-23T23:53:54.320Z,85.46
2018-06-23T23:56:22.966Z,86.14
2018-06-23T23:58:51.557Z,85.80
